createdAt,value
2023-05-04T00:00:02.679Z,10.07
2023-05-04T00:02:31.296Z,10.18
2023-05-04T00:04:57.929Z,10.14
2023-05-04T00:07:24.492Z,10.17
2023-05-04T00:09:51.434Z,10.10
2023-05-04T00:12:18.388Z,10.16
2023-05-04T00:14:44.871Z,10.21
2023-05-04T00:17:12.618Z,10.16
2023-05-04T00:19:42.020Z,10.00
2023-05-04T00:22:08.584Z,10.03
2023-05-04T00:24:35.103Z,10.01
2023-05-04T00:27:02.261Z,9.95
2023-05-04T00:29:29.143Z,9.95
2023-05-04T00:31:55.763Z,9.95
2023-05-04T00:34:22.660Z,9.92
2023-05-04T00:36:49.135Z,9.80
2023-05-04T00:39:15.949Z,9.83
2023-05-04T00:41:42.512Z,9.85
2023-05-04T00:44:09.154Z,9.87
2023-05-04T00:46:36.932Z,9.91
2023-05-04T00:49:03.773Z,9.87
2023-05-04T00:51:31.024Z,9.78
2023-05-04T00:53:58.363Z,9.73
2023-05-04T00:56:25.301Z,9.76
2023-05-04T00:58:57.647Z,9.66
2023-05-04T01:01:25.716Z,9.68
2023-05-04T01:03:55.104Z,9.66
2023-05-04T01:06:29.908Z,9.69
2023-05-04T01:09:19.316Z,9.77
2023-05-04T01:11:58.363Z,9.76
2023-05-04T01:14:25.213Z,9.70
2023-05-04T01:16:57.918Z,9.60
2023-05-04T01:19:24.929Z,9.57
2023-05-04T01:21:51.329Z,9.56
2023-05-04T01:24:17.732Z,9.55
2023-05-04T01:26:46.822Z,9.48
2023-05-04T01:29:19.270Z,9.45
2023-05-04T01:31:46.653Z,9.44
2023-05-04T01:34:14.297Z,9.49
2023-05-04T01:36:41.899Z,9.51
2023-05-04T01:39:09.723Z,9.53
2023-05-04T01:41:36.643Z,9.48
2023-05-04T01:44:04.321Z,9.51
2023-05-04T01:46:31.070Z,9.39
2023-05-04T01:48:57.555Z,9.37
2023-05-04T01:51:24.033Z,9.43
2023-05-04T01:53:50.518Z,9.47
2023-05-04T01:56:16.948Z,9.43
2023-05-04T01:58:44.411Z,9.41
2023-05-04T02:01:10.928Z,9.40
2023-05-04T02:03:37.535Z,9.44
2023-05-04T02:06:04.077Z,9.45
2023-05-04T02:08:30.421Z,9.35
2023-05-04T02:10:56.853Z,9.30
2023-05-04T02:13:23.700Z,9.26
2023-05-04T02:15:50.187Z,9.16
2023-05-04T02:18:16.856Z,9.08
2023-05-04T02:20:43.300Z,9.16
2023-05-04T02:23:09.671Z,9.22
2023-05-04T02:25:39.370Z,9.28
2023-05-04T02:28:05.773Z,9.28
2023-05-04T02:30:32.216Z,9.18
2023-05-04T02:32:58.636Z,9.09
2023-05-04T02:35:25.164Z,9.16
2023-05-04T02:37:51.571Z,9.16
2023-05-04T02:40:18.008Z,9.07
2023-05-04T02:42:44.412Z,8.97
2023-05-04T02:45:11.283Z,8.91
2023-05-04T02:47:37.793Z,8.84
2023-05-04T02:50:04.956Z,8.79
2023-05-04T02:52:32.210Z,8.81
2023-05-04T02:54:59.598Z,8.88
2023-05-04T02:57:26.043Z,8.86
2023-05-04T02:59:52.509Z,8.82
2023-05-04T03:02:18.890Z,8.76
2023-05-04T03:04:45.430Z,8.81
2023-05-04T03:07:12.257Z,8.81
2023-05-04T03:09:38.747Z,8.78
2023-05-04T03:12:05.892Z,8.78
2023-05-04T03:14:32.382Z,8.79
2023-05-04T03:16:59.826Z,8.77
2023-05-04T03:19:26.373Z,8.82
2023-05-04T03:21:52.848Z,8.79
2023-05-04T03:24:19.372Z,8.77
2023-05-04T03:26:47.237Z,8.71
2023-05-04T03:29:14.008Z,8.60
2023-05-04T03:31:40.880Z,8.56
2023-05-04T03:34:09.835Z,8.51
2023-05-04T03:36:36.286Z,8.54
2023-05-04T03:39:02.933Z,8.54
2023-05-04T03:41:29.584Z,8.44
2023-05-04T03:43:55.986Z,8.39
2023-05-04T03:46:22.462Z,8.48
2023-05-04T03:48:48.962Z,8.60
2023-05-04T03:51:17.139Z,8.68
2023-05-04T03:53:44.997Z,8.73
2023-05-04T03:56:13.076Z,8.68
2023-05-04T03:58:40.088Z,8.72
2023-05-04T04:01:07.091Z,8.70
2023-05-04T04:03:33.667Z,8.63
2023-05-04T04:06:00.209Z,8.55
2023-05-04T04:08:26.830Z,8.54
2023-05-04T04:10:53.197Z,8.54
2023-05-04T04:13:19.780Z,8.49
2023-05-04T04:15:46.718Z,8.53
2023-05-04T04:18:13.312Z,8.59
2023-05-04T04:20:39.731Z,8.63
2023-05-04T04:23:06.164Z,8.53
2023-05-04T04:25:32.567Z,8.47
2023-05-04T04:27:59.024Z,8.48
2023-05-04T04:30:25.730Z,8.46
2023-05-04T04:32:52.227Z,8.51
2023-05-04T04:35:18.647Z,8.52
2023-05-04T04:37:45.037Z,8.52
2023-05-04T04:40:11.803Z,8.48
2023-05-04T04:42:38.266Z,8.56
2023-05-04T04:45:05.616Z,8.67
2023-05-04T04:47:32.841Z,8.72
2023-05-04T04:49:59.380Z,8.69
2023-05-04T04:52:25.931Z,8.59
2023-05-04T04:54:52.336Z,8.58
2023-05-04T04:57:18.726Z,8.67
2023-05-04T04:59:46.227Z,8.70
2023-05-04T05:02:12.697Z,8.64
2023-05-04T05:04:41.317Z,8.62
2023-05-04T05:07:10.682Z,8.61
2023-05-04T05:09:37.644Z,8.57
2023-05-04T05:12:04.996Z,8.58
2023-05-04T05:14:35.089Z,8.61
2023-05-04T05:17:03.900Z,8.67
2023-05-04T05:19:30.489Z,8.60
2023-05-04T05:21:59.796Z,8.53
2023-05-04T05:24:26.859Z,8.61
2023-05-04T05:26:53.240Z,8.66
2023-05-04T05:29:19.597Z,9.03
2023-05-04T05:31:46.633Z,9.08
2023-05-04T05:34:13.120Z,9.09
2023-05-04T05:36:39.869Z,9.10
2023-05-04T05:39:06.314Z,9.13
2023-05-04T05:41:32.731Z,9.22
2023-05-04T05:43:59.465Z,9.32
2023-05-04T05:46:28.136Z,9.30
2023-05-04T05:48:54.663Z,9.29
2023-05-04T05:51:21.057Z,9.21
2023-05-04T05:53:47.497Z,9.21
2023-05-04T05:56:14.787Z,9.17
2023-05-04T05:58:41.642Z,9.22
2023-05-04T06:01:08.237Z,9.26
2023-05-04T06:03:34.703Z,9.28
2023-05-04T06:06:01.140Z,9.31
2023-05-04T06:08:27.526Z,9.43
2023-05-04T06:10:54.557Z,9.54
2023-05-04T06:13:21.025Z,9.63
2023-05-04T06:15:52.600Z,9.71
2023-05-04T06:18:20.102Z,9.72
2023-05-04T06:20:46.641Z,9.72
2023-05-04T06:23:14.606Z,9.74
2023-05-04T06:25:41.660Z,9.81
2023-05-04T06:28:08.201Z,9.85
2023-05-04T06:30:34.676Z,9.83
2023-05-04T06:33:01.066Z,9.86
2023-05-04T06:35:29.655Z,9.96
2023-05-04T06:37:56.325Z,10.08
2023-05-04T06:40:22.744Z,10.19
2023-05-04T06:42:49.260Z,10.25
2023-05-04T06:45:15.748Z,10.30
2023-05-04T06:47:42.259Z,10.34
2023-05-04T06:50:10.444Z,10.37
2023-05-04T06:52:41.130Z,10.38
2023-05-04T06:55:08.187Z,10.37
2023-05-04T06:57:34.576Z,10.38
2023-05-04T07:00:01.492Z,10.43
2023-05-04T07:02:28.047Z,10.43
2023-05-04T07:04:54.513Z,10.46
2023-05-04T07:07:20.947Z,10.53
2023-05-04T07:09:48.141Z,10.58
2023-05-04T07:12:14.559Z,10.74
2023-05-04T07:14:40.991Z,10.95
2023-05-04T07:17:10.011Z,11.07
2023-05-04T07:19:36.957Z,11.08
2023-05-04T07:22:03.638Z,11.09
2023-05-04T07:24:30.827Z,11.18
2023-05-04T07:26:57.184Z,11.22
2023-05-04T07:29:23.675Z,11.30
2023-05-04T07:31:50.112Z,11.29
2023-05-04T07:34:16.552Z,11.29
2023-05-04T07:36:43.624Z,11.33
2023-05-04T07:39:10.115Z,11.37
2023-05-04T07:41:36.983Z,11.41
2023-05-04T07:44:05.612Z,11.35
2023-05-04T07:46:32.216Z,11.33
2023-05-04T07:48:58.812Z,11.38
2023-05-04T07:51:25.422Z,11.47
2023-05-04T07:53:51.833Z,11.50
2023-05-04T07:56:18.297Z,11.53
2023-05-04T07:58:44.760Z,11.48
2023-05-04T08:01:11.240Z,11.44
2023-05-04T08:03:38.137Z,11.55
2023-05-04T08:06:04.686Z,11.60
2023-05-04T08:08:31.052Z,11.60
2023-05-04T08:11:07.950Z,11.68
2023-05-04T08:13:39.527Z,11.77
2023-05-04T08:16:06.807Z,11.85
2023-05-04T08:18:33.234Z,11.88
2023-05-04T08:20:59.696Z,11.95
2023-05-04T08:23:26.166Z,12.06
2023-05-04T08:25:52.547Z,12.11
2023-05-04T08:28:18.947Z,12.16
2023-05-04T08:30:45.340Z,12.23
2023-05-04T08:33:11.880Z,12.31
2023-05-04T08:35:38.591Z,12.40
2023-05-04T08:38:05.000Z,12.40
2023-05-04T08:40:31.447Z,12.45
2023-05-04T08:42:57.900Z,12.49
2023-05-04T08:45:25.475Z,12.59
2023-05-04T08:47:52.022Z,12.72
2023-05-04T08:50:18.563Z,12.75
2023-05-04T08:52:48.914Z,12.75
2023-05-04T08:55:17.191Z,12.79
2023-05-04T08:57:44.401Z,12.94
2023-05-04T09:00:16.623Z,13.11
2023-05-04T09:02:43.231Z,13.22
2023-05-04T09:05:11.374Z,13.28
2023-05-04T09:07:37.904Z,13.35
2023-05-04T09:10:04.624Z,13.40
2023-05-04T09:12:31.471Z,13.41
2023-05-04T09:14:58.362Z,13.51
2023-05-04T09:17:27.823Z,13.52
2023-05-04T09:20:04.611Z,13.54
2023-05-04T09:22:31.468Z,13.64
2023-05-04T09:25:08.293Z,13.76
2023-05-04T09:27:34.817Z,13.85
2023-05-04T09:30:01.194Z,13.97
2023-05-04T09:32:28.450Z,13.97
2023-05-04T09:34:54.844Z,13.99
2023-05-04T09:37:22.000Z,14.08
2023-05-04T09:39:53.691Z,14.24
2023-05-04T09:42:20.795Z,14.37
2023-05-04T09:45:01.745Z,14.57
2023-05-04T09:47:36.158Z,14.71
2023-05-04T09:50:17.623Z,14.84
2023-05-04T09:52:47.120Z,14.92
2023-05-04T09:55:15.667Z,15.04
2023-05-04T09:57:43.520Z,15.17
2023-05-04T10:00:19.114Z,15.17
2023-05-04T10:02:47.092Z,15.26
2023-05-04T10:05:18.408Z,15.46
2023-05-04T10:07:45.337Z,15.57
2023-05-04T10:10:14.204Z,15.56
2023-05-04T10:12:40.960Z,15.57
2023-05-04T10:15:09.492Z,15.64
2023-05-04T10:17:41.971Z,15.73
2023-05-04T10:20:33.162Z,15.89
2023-05-04T10:23:28.486Z,15.98
2023-05-04T10:25:57.625Z,16.05
2023-05-04T10:28:45.459Z,16.04
2023-05-04T10:31:12.070Z,16.02
2023-05-04T10:33:39.804Z,16.01
2023-05-04T10:36:07.011Z,16.09
2023-05-04T10:38:35.406Z,16.17
2023-05-04T10:41:12.982Z,16.19
2023-05-04T10:43:39.376Z,16.21
2023-05-04T10:46:16.852Z,16.20
2023-05-04T10:48:43.393Z,16.16
2023-05-04T10:51:21.400Z,16.24
2023-05-04T10:53:48.459Z,16.31
2023-05-04T10:56:24.588Z,16.39
2023-05-04T10:58:52.172Z,16.49
2023-05-04T11:01:20.316Z,16.55
2023-05-04T11:03:48.376Z,16.65
2023-05-04T11:06:24.770Z,16.73
2023-05-04T11:09:02.641Z,16.76
2023-05-04T11:11:29.230Z,16.71
2023-05-04T11:13:56.914Z,16.61
2023-05-04T11:16:24.938Z,16.54
2023-05-04T11:18:51.524Z,16.59
2023-05-04T11:21:25.684Z,16.70
2023-05-04T11:23:59.650Z,16.73
2023-05-04T11:26:26.622Z,16.77
2023-05-04T11:28:53.156Z,16.94
2023-05-04T11:31:21.233Z,17.07
2023-05-04T11:33:52.823Z,17.17
2023-05-04T11:36:19.531Z,17.25
2023-05-04T11:38:46.847Z,17.34
2023-05-04T11:41:13.346Z,17.41
2023-05-04T11:43:42.356Z,17.41
2023-05-04T11:46:09.347Z,17.45
2023-05-04T11:48:36.164Z,17.52
2023-05-04T11:51:03.669Z,17.66
2023-05-04T11:53:40.561Z,17.78
2023-05-04T11:56:09.003Z,17.84
2023-05-04T11:58:36.344Z,17.93
2023-05-04T12:01:03.981Z,18.06
2023-05-04T12:03:43.756Z,18.10
2023-05-04T12:06:15.075Z,18.14
2023-05-04T12:08:44.644Z,18.01
2023-05-04T12:11:25.043Z,17.87
2023-05-04T12:14:13.303Z,17.89
2023-05-04T12:16:40.921Z,17.93
2023-05-04T12:19:10.876Z,17.97
2023-05-04T12:21:38.093Z,18.04
2023-05-04T12:24:05.371Z,18.15
2023-05-04T12:26:32.107Z,18.25
2023-05-04T12:28:58.586Z,18.42
2023-05-04T12:31:25.474Z,18.59
2023-05-04T12:33:52.266Z,18.74
2023-05-04T12:36:18.780Z,18.88
2023-05-04T12:38:45.926Z,18.99
2023-05-04T12:41:12.456Z,19.05
2023-05-04T12:43:38.953Z,19.07
2023-05-04T12:46:05.571Z,19.14
2023-05-04T12:48:32.795Z,19.26
2023-05-04T12:51:01.073Z,19.36
2023-05-04T12:53:29.920Z,19.44
2023-05-04T12:55:57.160Z,19.55
2023-05-04T12:58:23.630Z,19.67
2023-05-04T13:00:50.251Z,19.89
2023-05-04T13:03:17.935Z,19.87
2023-05-04T13:05:46.149Z,19.90
2023-05-04T13:08:12.702Z,20.11
2023-05-04T13:10:39.107Z,20.27
2023-05-04T13:13:05.651Z,20.31
2023-05-04T13:15:33.271Z,20.31
2023-05-04T13:18:00.351Z,20.17
2023-05-04T13:20:38.981Z,20.18
2023-05-04T13:23:05.433Z,20.34
2023-05-04T13:25:31.884Z,20.42
2023-05-04T13:27:58.764Z,20.49
2023-05-04T13:30:25.788Z,20.53
2023-05-04T13:32:52.221Z,20.61
2023-05-04T13:35:18.931Z,20.74
2023-05-04T13:37:45.596Z,20.73
2023-05-04T13:40:12.826Z,20.80
2023-05-04T13:42:39.228Z,20.93
2023-05-04T13:45:07.019Z,21.02
2023-05-04T13:47:36.908Z,20.99
2023-05-04T13:50:03.745Z,20.93
2023-05-04T13:52:31.754Z,20.93
2023-05-04T13:54:58.377Z,20.95
2023-05-04T13:57:27.746Z,20.89
2023-05-04T14:00:06.678Z,21.02
2023-05-04T14:02:37.781Z,20.95
2023-05-04T14:05:04.824Z,20.93
2023-05-04T14:07:32.602Z,20.94
2023-05-04T14:09:59.081Z,20.94
2023-05-04T14:12:25.586Z,20.91
2023-05-04T14:14:52.075Z,20.95
2023-05-04T14:17:18.561Z,20.89
2023-05-04T14:19:45.603Z,20.85
2023-05-04T14:22:12.099Z,20.83
2023-05-04T14:24:38.592Z,20.73
2023-05-04T14:27:05.071Z,20.74
2023-05-04T14:29:33.188Z,20.83
2023-05-04T14:32:00.537Z,20.88
2023-05-04T14:34:29.327Z,20.82
2023-05-04T14:36:56.586Z,20.84
2023-05-04T14:39:23.056Z,20.92
2023-05-04T14:41:49.568Z,20.93
2023-05-04T14:44:16.004Z,20.98
2023-05-04T14:46:42.497Z,20.99
2023-05-04T14:49:08.870Z,21.06
2023-05-04T14:51:35.608Z,20.98
2023-05-04T14:54:02.194Z,20.95
2023-05-04T14:56:28.713Z,21.01
2023-05-04T14:58:57.177Z,21.05
2023-05-04T15:01:25.075Z,21.05
2023-05-04T15:03:51.624Z,21.06
2023-05-04T15:06:18.296Z,21.11
2023-05-04T15:08:44.710Z,21.15
2023-05-04T15:11:11.320Z,21.16
2023-05-04T15:13:37.754Z,21.16
2023-05-04T15:16:04.596Z,21.21
2023-05-04T15:18:31.510Z,21.27
2023-05-04T15:20:57.949Z,21.19
2023-05-04T15:23:24.368Z,21.18
2023-05-04T15:25:50.896Z,21.18
2023-05-04T15:28:17.393Z,21.19
2023-05-04T15:30:43.961Z,21.27
2023-05-04T15:33:10.468Z,21.27
2023-05-04T15:35:37.027Z,21.24
2023-05-04T15:38:03.527Z,21.22
2023-05-04T15:40:30.100Z,21.16
2023-05-04T15:42:56.591Z,21.08
2023-05-04T15:45:23.038Z,21.12
2023-05-04T15:47:49.559Z,21.07
2023-05-04T15:50:16.089Z,21.12
2023-05-04T15:52:42.576Z,21.16
2023-05-04T15:55:23.391Z,21.21
2023-05-04T15:57:52.273Z,21.18
2023-05-04T16:00:19.108Z,21.20
2023-05-04T16:02:45.669Z,21.16
2023-05-04T16:05:12.201Z,21.19
2023-05-04T16:07:38.664Z,21.19
2023-05-04T16:10:05.786Z,21.23
2023-05-04T16:12:32.389Z,21.21
2023-05-04T16:14:58.865Z,21.23
2023-05-04T16:17:25.651Z,21.14
2023-05-04T16:19:52.150Z,21.07
2023-05-04T16:22:18.610Z,21.04
2023-05-04T16:24:45.017Z,20.97
2023-05-04T16:27:11.448Z,20.98
2023-05-04T16:29:37.899Z,20.98
2023-05-04T16:32:04.518Z,21.00
2023-05-04T16:34:31.006Z,21.03
2023-05-04T16:36:57.453Z,21.02
2023-05-04T16:39:29.995Z,21.01
2023-05-04T16:41:57.378Z,20.95
2023-05-04T16:44:24.156Z,20.90
2023-05-04T16:46:51.591Z,20.89
2023-05-04T16:49:18.426Z,20.96
2023-05-04T16:51:44.858Z,20.99
2023-05-04T16:54:11.246Z,20.98
2023-05-04T16:56:37.704Z,21.02
2023-05-04T16:59:04.534Z,20.98
2023-05-04T17:01:31.170Z,21.01
2023-05-04T17:03:58.562Z,21.02
2023-05-04T17:06:25.087Z,21.02
2023-05-04T17:08:51.466Z,21.01
2023-05-04T17:11:17.969Z,20.94
2023-05-04T17:13:44.479Z,20.91
2023-05-04T17:16:11.000Z,20.89
2023-05-04T17:18:37.429Z,20.91
2023-05-04T17:21:04.026Z,20.90
2023-05-04T17:23:30.630Z,20.91
2023-05-04T17:25:57.074Z,20.92
2023-05-04T17:28:23.528Z,20.90
2023-05-04T17:30:49.991Z,20.90
2023-05-04T17:33:16.577Z,20.88
2023-05-04T17:35:43.073Z,20.87
2023-05-04T17:38:09.517Z,20.87
2023-05-04T17:40:35.906Z,20.85
2023-05-04T17:43:02.467Z,20.85
2023-05-04T17:45:29.033Z,20.86
2023-05-04T17:47:55.656Z,20.82
2023-05-04T17:50:22.265Z,20.82
2023-05-04T17:52:53.610Z,20.79
2023-05-04T17:55:20.292Z,20.77
2023-05-04T17:57:46.692Z,20.76
2023-05-04T18:00:13.747Z,20.76
2023-05-04T18:02:40.248Z,20.73
2023-05-04T18:05:07.271Z,20.73
2023-05-04T18:07:33.816Z,20.69
2023-05-04T18:10:01.876Z,20.64
2023-05-04T18:12:28.316Z,20.62
2023-05-04T18:14:54.777Z,20.63
2023-05-04T18:17:21.231Z,20.60
2023-05-04T18:19:47.625Z,20.59
2023-05-04T18:22:14.040Z,20.60
2023-05-04T18:24:40.612Z,20.58
2023-05-04T18:27:07.099Z,20.56
2023-05-04T18:29:33.537Z,20.58
2023-05-04T18:32:01.061Z,20.58
2023-05-04T18:34:27.544Z,20.57
2023-05-04T18:36:54.241Z,20.53
2023-05-04T18:39:20.618Z,20.49
2023-05-04T18:41:47.058Z,20.48
2023-05-04T18:44:16.819Z,20.50
2023-05-04T18:46:43.296Z,20.47
2023-05-04T18:49:09.783Z,20.41
2023-05-04T18:51:36.204Z,20.36
2023-05-04T18:54:02.645Z,20.32
2023-05-04T18:56:29.108Z,20.30
2023-05-04T18:58:55.549Z,20.23
2023-05-04T19:01:22.112Z,20.23
2023-05-04T19:03:48.666Z,20.21
2023-05-04T19:06:15.196Z,20.17
2023-05-04T19:08:41.807Z,20.11
2023-05-04T19:11:08.419Z,20.07
2023-05-04T19:13:34.815Z,20.02
2023-05-04T19:16:01.276Z,20.00
2023-05-04T19:18:27.762Z,19.95
2023-05-04T19:20:54.618Z,19.88
2023-05-04T19:23:21.198Z,19.83
2023-05-04T19:25:47.688Z,19.83
2023-05-04T19:28:14.058Z,19.82
2023-05-04T19:30:40.955Z,19.79
2023-05-04T19:33:10.348Z,19.80
2023-05-04T19:35:37.182Z,19.77
2023-05-04T19:38:06.290Z,19.75
2023-05-04T19:40:33.761Z,19.75
2023-05-04T19:43:00.387Z,19.73
2023-05-04T19:45:26.847Z,19.70
2023-05-04T19:47:53.280Z,19.67
2023-05-04T19:50:19.938Z,19.63
2023-05-04T19:52:46.688Z,19.60
2023-05-04T19:55:13.183Z,19.58
2023-05-04T19:57:39.827Z,19.56
2023-05-04T20:00:09.629Z,19.52
2023-05-04T20:02:39.689Z,19.45
2023-05-04T20:05:06.280Z,19.40
2023-05-04T20:07:32.872Z,19.37
2023-05-04T20:09:59.370Z,19.37
2023-05-04T20:12:26.831Z,19.33
2023-05-04T20:14:53.306Z,19.32
2023-05-04T20:17:19.673Z,19.30
2023-05-04T20:19:46.226Z,19.30
2023-05-04T20:22:12.857Z,19.23
2023-05-04T20:24:39.240Z,19.22
2023-05-04T20:27:05.701Z,19.18
2023-05-04T20:29:32.614Z,19.15
2023-05-04T20:32:01.303Z,19.15
2023-05-04T20:34:28.340Z,19.11
2023-05-04T20:36:54.735Z,19.09
2023-05-04T20:39:21.497Z,19.08
2023-05-04T20:41:49.693Z,19.01
2023-05-04T20:44:17.091Z,18.98
2023-05-04T20:46:44.054Z,18.95
2023-05-04T20:49:10.843Z,18.92
2023-05-04T20:51:37.556Z,18.93
2023-05-04T20:54:04.560Z,18.94
2023-05-04T20:56:31.103Z,18.98
2023-05-04T20:58:57.533Z,18.98
2023-05-04T21:01:24.044Z,19.00
2023-05-04T21:03:50.760Z,18.99
2023-05-04T21:06:17.317Z,18.96
2023-05-04T21:08:43.756Z,18.90
2023-05-04T21:11:10.269Z,18.82
2023-05-04T21:13:36.636Z,18.77
2023-05-04T21:16:03.180Z,18.74
2023-05-04T21:18:29.587Z,18.70
2023-05-04T21:20:56.029Z,18.63
2023-05-04T21:23:23.583Z,18.62
2023-05-04T21:25:49.965Z,18.61
2023-05-04T21:28:16.354Z,18.59
2023-05-04T21:30:43.436Z,18.57
2023-05-04T21:33:09.880Z,18.60
2023-05-04T21:35:36.313Z,18.61
2023-05-04T21:38:02.748Z,18.59
2023-05-04T21:40:29.165Z,18.62
2023-05-04T21:42:55.639Z,18.61
2023-05-04T21:45:22.072Z,18.59
2023-05-04T21:47:48.742Z,18.54
2023-05-04T21:50:16.156Z,18.53
2023-05-04T21:52:42.528Z,18.44
2023-05-04T21:55:09.260Z,18.43
2023-05-04T21:57:35.726Z,18.45
2023-05-04T22:00:02.593Z,18.41
2023-05-04T22:02:31.931Z,18.35
2023-05-04T22:04:58.361Z,18.30
2023-05-04T22:07:24.740Z,18.30
2023-05-04T22:09:52.173Z,18.32
2023-05-04T22:12:18.572Z,18.34
2023-05-04T22:14:44.939Z,18.31
2023-05-04T22:17:11.332Z,18.28
2023-05-04T22:19:38.347Z,18.27
2023-05-04T22:22:04.738Z,18.25
2023-05-04T22:24:31.173Z,18.25
2023-05-04T22:26:57.676Z,18.24
2023-05-04T22:29:24.137Z,18.21
2023-05-04T22:31:50.600Z,18.19
2023-05-04T22:34:17.008Z,18.16
2023-05-04T22:36:43.451Z,18.13
2023-05-04T22:39:09.853Z,18.06
2023-05-04T22:41:36.524Z,18.02
2023-05-04T22:44:03.055Z,18.04
2023-05-04T22:46:29.565Z,18.06
2023-05-04T22:48:56.049Z,18.01
2023-05-04T22:51:22.433Z,17.97
2023-05-04T22:53:48.915Z,17.92
2023-05-04T22:56:15.346Z,17.81
2023-05-04T22:58:41.862Z,17.79
2023-05-04T23:01:10.297Z,17.78
2023-05-04T23:03:37.847Z,17.81
2023-05-04T23:06:05.041Z,17.81
2023-05-04T23:08:31.433Z,17.78
2023-05-04T23:10:57.846Z,17.75
2023-05-04T23:13:24.423Z,17.71
2023-05-04T23:15:50.959Z,17.64
2023-05-04T23:18:17.600Z,17.62
2023-05-04T23:20:44.072Z,17.60
2023-05-04T23:23:10.576Z,17.56
2023-05-04T23:25:37.003Z,17.51
2023-05-04T23:28:03.684Z,17.49
2023-05-04T23:30:30.101Z,17.49
2023-05-04T23:32:57.660Z,17.54
2023-05-04T23:35:24.156Z,17.56
2023-05-04T23:37:50.605Z,17.55
2023-05-04T23:40:17.011Z,17.56
2023-05-04T23:42:43.383Z,17.57
2023-05-04T23:45:10.342Z,17.57
2023-05-04T23:47:36.753Z,17.57
2023-05-04T23:50:03.194Z,17.55
2023-05-04T23:52:29.812Z,17.57
2023-05-04T23:54:56.299Z,17.57
2023-05-04T23:57:22.708Z,17.58
2023-05-04T23:59:49.133Z,17.57
